createdAt,value
2022-09-12T00:03:28.126Z,15.49
2022-09-12T00:08:30.932Z,15.56
2022-09-12T00:13:37.273Z,15.58
2022-09-12T00:18:42.833Z,15.58
2022-09-12T00:23:46.466Z,15.53
2022-09-12T00:28:50.916Z,15.48
2022-09-12T00:33:56.820Z,15.48
2022-09-12T00:39:00.088Z,15.50
2022-09-12T00:44:23.531Z,15.48
2022-09-12T00:49:31.806Z,15.44
2022-09-12T00:54:42.870Z,15.40
2022-09-12T00:59:54.127Z,15.33
2022-09-12T01:04:57.162Z,15.30
2022-09-12T01:10:00.010Z,15.31
2022-09-12T01:15:03.471Z,15.29
2022-09-12T01:20:30.781Z,15.22
2022-09-12T01:25:54.837Z,15.23
2022-09-12T01:31:25.455Z,15.21
2022-09-12T01:36:39.397Z,15.17
2022-09-12T01:41:54.687Z,15.15
2022-09-12T01:47:11.409Z,15.19
2022-09-12T01:52:22.832Z,15.20
2022-09-12T01:57:39.676Z,15.18
2022-09-12T02:03:03.496Z,15.17
2022-09-12T02:08:17.203Z,15.11
2022-09-12T02:13:29.795Z,15.12
2022-09-12T02:18:37.017Z,15.14
2022-09-12T02:23:45.252Z,15.16
2022-09-12T02:28:48.830Z,15.17
2022-09-12T02:34:03.775Z,15.20
2022-09-12T02:39:07.056Z,15.12
2022-09-12T02:44:10.011Z,15.08
2022-09-12T02:49:13.206Z,15.06
2022-09-12T02:54:17.921Z,15.07
2022-09-12T02:59:23.207Z,15.11
2022-09-12T03:05:05.979Z,15.11
2022-09-12T03:10:15.164Z,15.00
2022-09-12T03:15:17.916Z,14.93
2022-09-12T03:20:36.946Z,14.91
2022-09-12T03:26:07.433Z,14.90
2022-09-12T03:31:16.046Z,14.93
2022-09-12T03:36:24.225Z,14.96
2022-09-12T03:41:27.019Z,14.97
2022-09-12T03:46:30.032Z,14.93
2022-09-12T03:51:32.920Z,14.88
2022-09-12T03:56:36.175Z,14.81
2022-09-12T04:01:39.090Z,14.77
2022-09-12T04:06:43.108Z,14.77
2022-09-12T04:11:46.057Z,14.74
2022-09-12T04:16:49.166Z,14.71
2022-09-12T04:21:52.552Z,14.63
2022-09-12T04:26:55.759Z,14.57
2022-09-12T04:31:59.180Z,14.57
2022-09-12T04:37:02.235Z,14.58
2022-09-12T04:42:05.644Z,14.59
2022-09-12T04:47:08.783Z,14.56
2022-09-12T04:52:11.615Z,14.55
2022-09-12T04:57:14.467Z,14.48
2022-09-12T05:02:18.198Z,14.49
2022-09-12T05:07:21.130Z,14.50
2022-09-12T05:12:24.893Z,14.50
2022-09-12T05:17:30.259Z,14.52
2022-09-12T05:22:33.062Z,14.48
2022-09-12T05:27:35.901Z,14.45
2022-09-12T05:32:38.840Z,14.50
2022-09-12T05:37:43.249Z,14.58
2022-09-12T05:42:46.063Z,14.61
2022-09-12T05:47:49.031Z,14.60
2022-09-12T05:52:51.874Z,14.58
2022-09-12T05:57:54.720Z,14.53
2022-09-12T06:02:58.009Z,14.47
2022-09-12T06:08:00.891Z,14.47
2022-09-12T06:13:04.396Z,14.54
2022-09-12T06:18:07.386Z,14.57
2022-09-12T06:23:10.520Z,14.58
2022-09-12T06:28:13.301Z,14.60
2022-09-12T06:33:17.033Z,14.58
2022-09-12T06:38:19.868Z,14.55
2022-09-12T06:43:22.896Z,14.56
2022-09-12T06:48:26.175Z,14.63
2022-09-12T06:53:30.762Z,14.76
2022-09-12T06:58:35.110Z,14.85
2022-09-12T07:03:38.957Z,14.93
2022-09-12T07:08:42.591Z,14.97
2022-09-12T07:13:47.432Z,15.00
2022-09-12T07:18:52.861Z,14.95
2022-09-12T07:23:58.001Z,14.95
2022-09-12T07:29:25.131Z,15.03
2022-09-12T07:34:24.665Z,15.11
2022-09-12T07:39:27.662Z,15.19
2022-09-12T07:44:30.632Z,15.23
2022-09-12T07:49:33.524Z,15.29
2022-09-12T07:54:37.495Z,15.39
2022-09-12T07:59:52.546Z,15.52
2022-09-12T08:04:56.851Z,15.62
2022-09-12T08:10:00.563Z,15.67
2022-09-12T08:15:04.195Z,15.65
2022-09-12T08:20:09.384Z,15.63
2022-09-12T08:25:12.277Z,15.69
2022-09-12T08:30:15.218Z,15.67
2022-09-12T08:35:18.550Z,15.58
2022-09-12T08:40:21.795Z,15.57
2022-09-12T08:45:38.917Z,15.69
2022-09-12T08:50:49.229Z,15.83
2022-09-12T08:55:53.970Z,15.96
2022-09-12T09:01:01.386Z,15.97
2022-09-12T09:06:33.468Z,16.05
2022-09-12T09:12:04.863Z,16.18
2022-09-12T09:17:21.565Z,16.29
2022-09-12T09:22:39.904Z,16.43
2022-09-12T09:27:49.353Z,16.51
2022-09-12T09:32:57.601Z,16.67
2022-09-12T09:38:08.865Z,16.81
2022-09-12T09:43:23.778Z,16.87
2022-09-12T09:48:35.964Z,16.98
2022-09-12T09:54:00.472Z,16.97
2022-09-12T09:59:09.282Z,17.15
2022-09-12T10:04:26.096Z,17.32
2022-09-12T10:09:37.453Z,17.42
2022-09-12T10:14:41.946Z,17.61
2022-09-12T10:19:49.860Z,17.82
2022-09-12T10:25:11.802Z,18.03
2022-09-12T10:30:14.764Z,18.16
2022-09-12T10:35:21.291Z,18.15
2022-09-12T10:40:32.716Z,18.42
2022-09-12T10:45:37.879Z,18.64
2022-09-12T10:50:43.668Z,18.66
2022-09-12T10:55:57.408Z,18.72
2022-09-12T11:01:28.582Z,18.73
2022-09-12T11:06:48.388Z,18.85
2022-09-12T11:11:53.892Z,18.86
2022-09-12T11:17:22.294Z,18.83
2022-09-12T11:22:48.548Z,18.82
2022-09-12T11:28:28.289Z,19.00
2022-09-12T11:33:43.150Z,19.10
2022-09-12T11:39:03.842Z,19.32
2022-09-12T11:44:15.848Z,19.50
2022-09-12T11:49:33.539Z,19.55
2022-09-12T11:54:53.934Z,19.72
2022-09-12T12:00:11.059Z,20.01
2022-09-12T12:05:37.579Z,20.34
2022-09-12T12:10:43.280Z,20.67
2022-09-12T12:15:51.133Z,20.87
2022-09-12T12:20:56.218Z,20.86
2022-09-12T12:26:01.106Z,20.92
2022-09-12T12:31:05.892Z,21.26
2022-09-12T12:36:10.973Z,21.42
2022-09-12T12:41:16.877Z,21.27
2022-09-12T12:46:24.891Z,21.41
2022-09-12T12:51:31.058Z,21.69
2022-09-12T12:56:41.307Z,22.04
2022-09-12T13:01:51.483Z,22.43
2022-09-12T13:07:07.711Z,22.78
2022-09-12T13:12:18.719Z,22.68
2022-09-12T13:17:47.899Z,22.43
2022-09-12T13:22:52.797Z,22.43
2022-09-12T13:28:07.951Z,22.70
2022-09-12T13:33:18.650Z,23.12
2022-09-12T13:38:57.801Z,23.13
2022-09-12T13:44:02.529Z,22.67
2022-09-12T13:49:38.880Z,22.64
2022-09-12T13:54:45.845Z,22.68
2022-09-12T13:59:49.697Z,22.59
2022-09-12T14:05:23.459Z,22.37
2022-09-12T14:10:32.006Z,21.97
2022-09-12T14:15:37.771Z,21.65
2022-09-12T14:20:42.049Z,21.37
2022-09-12T14:25:48.105Z,21.17
2022-09-12T14:31:03.781Z,21.07
2022-09-12T14:36:19.855Z,20.97
2022-09-12T14:41:29.610Z,20.89
2022-09-12T14:46:37.054Z,20.83
2022-09-12T14:51:50.744Z,20.76
2022-09-12T14:57:00.983Z,20.59
2022-09-12T15:02:22.141Z,20.46
2022-09-12T15:07:42.548Z,20.36
2022-09-12T15:12:45.355Z,20.28
2022-09-12T15:17:48.366Z,20.25
2022-09-12T15:22:51.819Z,20.20
2022-09-12T15:27:56.153Z,20.09
2022-09-12T15:33:00.220Z,19.97
2022-09-12T15:38:03.306Z,19.87
2022-09-12T15:43:06.498Z,19.80
2022-09-12T15:48:09.836Z,19.73
2022-09-12T15:53:17.319Z,19.62
2022-09-12T15:58:20.790Z,19.56
2022-09-12T16:03:28.838Z,19.53
2022-09-12T16:08:33.085Z,19.45
2022-09-12T16:13:37.369Z,19.33
2022-09-12T16:18:40.972Z,19.23
2022-09-12T16:23:44.842Z,19.15
2022-09-12T16:28:47.898Z,19.06
2022-09-12T16:33:50.893Z,18.97
2022-09-12T16:38:54.704Z,18.84
2022-09-12T16:43:58.247Z,18.70
2022-09-12T16:49:01.537Z,18.57
2022-09-12T16:54:04.899Z,18.46
2022-09-12T16:59:12.255Z,18.34
2022-09-12T17:04:15.175Z,18.22
2022-09-12T17:09:18.785Z,18.08
2022-09-12T17:14:21.692Z,17.98
2022-09-12T17:19:29.766Z,17.85
2022-09-12T17:24:33.241Z,17.74
2022-09-12T17:29:37.705Z,17.66
2022-09-12T17:34:40.677Z,17.63
2022-09-12T17:39:44.164Z,17.59
2022-09-12T17:44:47.742Z,17.54
2022-09-12T17:50:05.157Z,17.47
2022-09-12T17:55:17.271Z,17.39
2022-09-12T18:00:40.851Z,17.29
2022-09-12T18:05:48.459Z,17.20
2022-09-12T18:10:52.356Z,17.11
2022-09-12T18:15:55.697Z,17.00
2022-09-12T18:20:59.090Z,16.90
2022-09-12T18:26:05.187Z,16.85
2022-09-12T18:31:15.502Z,16.82
2022-09-12T18:36:19.939Z,16.79
2022-09-12T18:41:24.904Z,16.83
2022-09-12T18:46:29.972Z,16.87
2022-09-12T18:51:36.030Z,16.92
2022-09-12T18:56:41.007Z,16.92
2022-09-12T19:01:45.016Z,16.89
2022-09-12T19:06:50.457Z,16.85
2022-09-12T19:11:54.191Z,16.81
2022-09-12T19:16:57.279Z,16.80
2022-09-12T19:22:00.463Z,16.81
2022-09-12T19:27:04.101Z,16.86
2022-09-12T19:32:07.722Z,16.85
2022-09-12T19:37:10.744Z,16.84
2022-09-12T19:42:13.627Z,16.83
2022-09-12T19:47:16.640Z,16.77
2022-09-12T19:52:19.696Z,16.72
2022-09-12T19:57:22.776Z,16.67
2022-09-12T20:02:28.042Z,16.63
2022-09-12T20:07:31.075Z,16.58
2022-09-12T20:12:34.226Z,16.52
2022-09-12T20:17:37.116Z,16.46
2022-09-12T20:22:40.350Z,16.38
2022-09-12T20:27:43.724Z,16.31
2022-09-12T20:32:46.888Z,16.24
2022-09-12T20:37:49.850Z,16.18
2022-09-12T20:42:53.007Z,16.12
2022-09-12T20:47:55.895Z,16.09
2022-09-12T20:52:59.131Z,16.03
2022-09-12T20:58:02.327Z,16.01
2022-09-12T21:03:05.304Z,15.97
2022-09-12T21:08:08.314Z,15.87
2022-09-12T21:13:13.342Z,15.71
2022-09-12T21:18:16.176Z,15.58
2022-09-12T21:23:19.082Z,15.45
2022-09-12T21:28:22.315Z,15.39
2022-09-12T21:33:25.145Z,15.34
2022-09-12T21:38:28.074Z,15.29
2022-09-12T21:43:31.085Z,15.22
2022-09-12T21:48:34.436Z,15.21
2022-09-12T21:53:37.565Z,15.23
2022-09-12T21:58:40.607Z,15.23
2022-09-12T22:03:44.954Z,15.22
2022-09-12T22:08:47.844Z,15.22
2022-09-12T22:13:50.740Z,15.19
2022-09-12T22:18:54.049Z,15.17
2022-09-12T22:24:26.224Z,15.10
2022-09-12T22:29:29.172Z,15.09
2022-09-12T22:34:32.009Z,15.09
2022-09-12T22:39:34.968Z,15.06
2022-09-12T22:44:37.822Z,15.03
2022-09-12T22:49:42.844Z,14.97
2022-09-12T22:54:46.144Z,14.92
2022-09-12T22:59:49.237Z,14.86
2022-09-12T23:04:52.554Z,14.81
2022-09-12T23:09:55.372Z,14.77
2022-09-12T23:14:58.265Z,14.76
2022-09-12T23:20:01.538Z,14.75
2022-09-12T23:25:04.835Z,14.73
2022-09-12T23:30:09.492Z,14.73
2022-09-12T23:35:16.162Z,14.68
2022-09-12T23:40:19.071Z,14.69
2022-09-12T23:45:21.997Z,14.74
2022-09-12T23:50:24.847Z,14.81
2022-09-12T23:55:27.695Z,14.87
